sensor_id;sensor_type;location;lat;lon;timestamp;P1;durP1;ratioP1;P2;durP2;ratioP2
13185;SDS011;6658;53.080;7.428;2023-12-20T00:01:23;4.97;;;1.70;;
13185;SDS011;6658;53.080;7.428;2023-12-20T00:03:49;8.40;;;2.93;;
13185;SDS011;6658;53.080;7.428;2023-12-20T00:06:14;6.00;;;2.20;;
13185;SDS011;6658;53.080;7.428;2023-12-20T00:08:40;6.23;;;1.67;;
13185;SDS011;6658;53.080;7.428;2023-12-20T00:11:06;5.00;;;1.90;;
13185;SDS011;6658;53.080;7.428;2023-12-20T00:13:31;8.93;;;1.90;;
13185;SDS011;6658;53.080;7.428;2023-12-20T00:15:57;6.23;;;1.37;;
13185;SDS011;6658;53.080;7.428;2023-12-20T00:18:23;3.20;;;1.40;;
13185;SDS011;6658;53.080;7.428;2023-12-20T00:20:48;5.83;;;1.50;;
13185;SDS011;6658;53.080;7.428;2023-12-20T00:23:14;6.37;;;2.03;;
13185;SDS011;6658;53.080;7.428;2023-12-20T00:25:40;6.43;;;1.67;;
13185;SDS011;6658;53.080;7.428;2023-12-20T00:28:05;7.60;;;2.10;;
13185;SDS011;6658;53.080;7.428;2023-12-20T00:30:31;5.73;;;1.70;;
13185;SDS011;6658;53.080;7.428;2023-12-20T00:32:57;5.93;;;1.50;;
13185;SDS011;6658;53.080;7.428;2023-12-20T00:35:23;6.03;;;1.60;;
13185;SDS011;6658;53.080;7.428;2023-12-20T00:37:49;10.37;;;1.93;;
13185;SDS011;6658;53.080;7.428;2023-12-20T00:40:14;6.90;;;1.83;;
13185;SDS011;6658;53.080;7.428;2023-12-20T00:42:40;8.50;;;1.50;;
13185;SDS011;6658;53.080;7.428;2023-12-20T00:45:06;5.37;;;1.93;;
13185;SDS011;6658;53.080;7.428;2023-12-20T00:47:32;8.17;;;2.07;;
13185;SDS011;6658;53.080;7.428;2023-12-20T00:49:57;8.03;;;2.63;;
13185;SDS011;6658;53.080;7.428;2023-12-20T00:52:23;8.17;;;1.40;;
13185;SDS011;6658;53.080;7.428;2023-12-20T00:54:50;6.77;;;1.70;;
13185;SDS011;6658;53.080;7.428;2023-12-20T00:57:15;6.47;;;1.90;;
13185;SDS011;6658;53.080;7.428;2023-12-20T00:59:41;7.83;;;1.63;;
13185;SDS011;6658;53.080;7.428;2023-12-20T01:02:07;3.40;;;1.50;;
13185;SDS011;6658;53.080;7.428;2023-12-20T01:04:33;6.30;;;1.90;;
13185;SDS011;6658;53.080;7.428;2023-12-20T01:06:59;7.30;;;1.77;;
13185;SDS011;6658;53.080;7.428;2023-12-20T01:09:25;8.17;;;1.77;;
13185;SDS011;6658;53.080;7.428;2023-12-20T01:11:53;5.63;;;1.80;;
13185;SDS011;6658;53.080;7.428;2023-12-20T01:14:19;6.67;;;1.57;;
13185;SDS011;6658;53.080;7.428;2023-12-20T01:16:45;8.10;;;1.83;;
13185;SDS011;6658;53.080;7.428;2023-12-20T01:19:12;8.03;;;2.40;;
13185;SDS011;6658;53.080;7.428;2023-12-20T01:21:39;7.23;;;1.83;;
13185;SDS011;6658;53.080;7.428;2023-12-20T01:24:05;9.23;;;2.00;;
13185;SDS011;6658;53.080;7.428;2023-12-20T01:26:31;7.20;;;1.77;;
13185;SDS011;6658;53.080;7.428;2023-12-20T01:28:57;4.40;;;1.87;;
13185;SDS011;6658;53.080;7.428;2023-12-20T01:31:22;8.13;;;2.00;;
13185;SDS011;6658;53.080;7.428;2023-12-20T01:33:48;6.90;;;2.03;;
13185;SDS011;6658;53.080;7.428;2023-12-20T01:36:14;6.50;;;1.90;;
13185;SDS011;6658;53.080;7.428;2023-12-20T01:38:39;7.23;;;2.20;;
13185;SDS011;6658;53.080;7.428;2023-12-20T01:41:05;4.83;;;1.70;;
13185;SDS011;6658;53.080;7.428;2023-12-20T01:43:31;6.20;;;1.60;;
13185;SDS011;6658;53.080;7.428;2023-12-20T01:45:59;5.77;;;1.83;;
13185;SDS011;6658;53.080;7.428;2023-12-20T01:48:25;7.20;;;1.90;;
13185;SDS011;6658;53.080;7.428;2023-12-20T01:50:53;7.83;;;1.47;;
13185;SDS011;6658;53.080;7.428;2023-12-20T01:53:20;5.67;;;2.00;;
13185;SDS011;6658;53.080;7.428;2023-12-20T01:55:49;8.57;;;2.37;;
13185;SDS011;6658;53.080;7.428;2023-12-20T01:58:17;5.53;;;1.60;;
13185;SDS011;6658;53.080;7.428;2023-12-20T02:00:43;6.20;;;1.53;;
13185;SDS011;6658;53.080;7.428;2023-12-20T02:03:09;6.80;;;1.80;;
13185;SDS011;6658;53.080;7.428;2023-12-20T02:05:35;5.20;;;1.83;;
13185;SDS011;6658;53.080;7.428;2023-12-20T02:08:04;4.30;;;1.60;;
13185;SDS011;6658;53.080;7.428;2023-12-20T02:10:31;6.97;;;2.10;;
13185;SDS011;6658;53.080;7.428;2023-12-20T02:12:57;6.27;;;1.77;;
13185;SDS011;6658;53.080;7.428;2023-12-20T02:15:22;5.53;;;1.70;;
13185;SDS011;6658;53.080;7.428;2023-12-20T02:17:48;7.13;;;2.47;;
13185;SDS011;6658;53.080;7.428;2023-12-20T02:20:14;7.30;;;1.77;;
13185;SDS011;6658;53.080;7.428;2023-12-20T02:22:40;12.90;;;2.43;;
13185;SDS011;6658;53.080;7.428;2023-12-20T02:25:06;8.30;;;1.90;;
13185;SDS011;6658;53.080;7.428;2023-12-20T02:27:32;6.17;;;1.70;;
13185;SDS011;6658;53.080;7.428;2023-12-20T02:29:57;4.27;;;1.33;;
13185;SDS011;6658;53.080;7.428;2023-12-20T02:32:24;6.83;;;1.93;;
13185;SDS011;6658;53.080;7.428;2023-12-20T02:34:54;6.17;;;2.20;;
13185;SDS011;6658;53.080;7.428;2023-12-20T02:37:20;7.37;;;2.70;;
13185;SDS011;6658;53.080;7.428;2023-12-20T02:39:46;8.57;;;2.20;;
13185;SDS011;6658;53.080;7.428;2023-12-20T02:42:12;7.30;;;2.00;;
13185;SDS011;6658;53.080;7.428;2023-12-20T02:44:38;6.90;;;1.90;;
13185;SDS011;6658;53.080;7.428;2023-12-20T02:47:04;8.57;;;2.23;;
13185;SDS011;6658;53.080;7.428;2023-12-20T02:49:29;8.37;;;1.70;;
13185;SDS011;6658;53.080;7.428;2023-12-20T02:51:55;7.07;;;1.80;;
13185;SDS011;6658;53.080;7.428;2023-12-20T02:54:21;6.73;;;2.07;;
13185;SDS011;6658;53.080;7.428;2023-12-20T02:56:46;5.00;;;1.67;;
13185;SDS011;6658;53.080;7.428;2023-12-20T02:59:12;6.87;;;1.80;;
13185;SDS011;6658;53.080;7.428;2023-12-20T03:01:42;7.87;;;2.00;;
13185;SDS011;6658;53.080;7.428;2023-12-20T03:04:10;8.23;;;2.20;;
13185;SDS011;6658;53.080;7.428;2023-12-20T03:06:36;7.57;;;1.40;;
13185;SDS011;6658;53.080;7.428;2023-12-20T03:09:01;5.77;;;2.67;;
13185;SDS011;6658;53.080;7.428;2023-12-20T03:11:27;4.37;;;1.77;;
13185;SDS011;6658;53.080;7.428;2023-12-20T03:13:54;3.43;;;1.30;;
13185;SDS011;6658;53.080;7.428;2023-12-20T03:16:20;4.93;;;1.60;;
13185;SDS011;6658;53.080;7.428;2023-12-20T03:18:46;6.83;;;1.73;;
13185;SDS011;6658;53.080;7.428;2023-12-20T03:21:11;3.20;;;1.60;;
13185;SDS011;6658;53.080;7.428;2023-12-20T03:23:37;7.03;;;1.80;;
13185;SDS011;6658;53.080;7.428;2023-12-20T03:26:03;5.67;;;1.50;;
13185;SDS011;6658;53.080;7.428;2023-12-20T03:28:31;6.27;;;2.13;;
13185;SDS011;6658;53.080;7.428;2023-12-20T03:30:57;6.87;;;2.17;;
13185;SDS011;6658;53.080;7.428;2023-12-20T03:33:22;11.33;;;2.17;;
13185;SDS011;6658;53.080;7.428;2023-12-20T03:35:48;7.13;;;2.13;;
13185;SDS011;6658;53.080;7.428;2023-12-20T03:38:14;7.17;;;1.70;;
13185;SDS011;6658;53.080;7.428;2023-12-20T03:40:39;7.13;;;2.20;;
13185;SDS011;6658;53.080;7.428;2023-12-20T03:43:05;5.83;;;2.03;;
13185;SDS011;6658;53.080;7.428;2023-12-20T03:45:31;10.00;;;1.97;;
13185;SDS011;6658;53.080;7.428;2023-12-20T03:47:56;10.00;;;2.57;;
13185;SDS011;6658;53.080;7.428;2023-12-20T03:50:22;10.37;;;2.77;;
13185;SDS011;6658;53.080;7.428;2023-12-20T03:52:48;7.63;;;2.30;;
13185;SDS011;6658;53.080;7.428;2023-12-20T03:55:14;5.97;;;1.97;;
13185;SDS011;6658;53.080;7.428;2023-12-20T03:57:40;7.30;;;2.43;;
13185;SDS011;6658;53.080;7.428;2023-12-20T04:00:06;8.03;;;2.10;;
13185;SDS011;6658;53.080;7.428;2023-12-20T04:02:38;9.27;;;2.30;;
13185;SDS011;6658;53.080;7.428;2023-12-20T04:05:08;10.10;;;2.73;;
13185;SDS011;6658;53.080;7.428;2023-12-20T04:07:35;7.73;;;2.10;;
13185;SDS011;6658;53.080;7.428;2023-12-20T04:10:01;12.07;;;2.83;;
13185;SDS011;6658;53.080;7.428;2023-12-20T04:12:28;8.27;;;2.53;;
13185;SDS011;6658;53.080;7.428;2023-12-20T04:14:54;9.03;;;2.20;;
13185;SDS011;6658;53.080;7.428;2023-12-20T04:17:20;11.60;;;2.33;;
13185;SDS011;6658;53.080;7.428;2023-12-20T04:19:48;8.33;;;2.33;;
13185;SDS011;6658;53.080;7.428;2023-12-20T04:22:14;8.77;;;3.20;;
13185;SDS011;6658;53.080;7.428;2023-12-20T04:24:40;8.07;;;2.80;;
13185;SDS011;6658;53.080;7.428;2023-12-20T04:27:07;11.07;;;2.80;;
13185;SDS011;6658;53.080;7.428;2023-12-20T04:29:33;8.47;;;2.53;;
13185;SDS011;6658;53.080;7.428;2023-12-20T04:31:59;8.13;;;2.20;;
13185;SDS011;6658;53.080;7.428;2023-12-20T04:34:25;8.17;;;2.53;;
13185;SDS011;6658;53.080;7.428;2023-12-20T04:36:51;10.63;;;2.83;;
13185;SDS011;6658;53.080;7.428;2023-12-20T04:39:17;7.33;;;2.37;;
13185;SDS011;6658;53.080;7.428;2023-12-20T04:41:43;13.40;;;2.70;;
13185;SDS011;6658;53.080;7.428;2023-12-20T04:44:09;9.47;;;2.53;;
13185;SDS011;6658;53.080;7.428;2023-12-20T04:46:34;8.33;;;2.40;;
13185;SDS011;6658;53.080;7.428;2023-12-20T04:49:00;11.07;;;3.23;;
13185;SDS011;6658;53.080;7.428;2023-12-20T04:51:26;7.70;;;3.20;;
13185;SDS011;6658;53.080;7.428;2023-12-20T04:53:52;14.70;;;2.90;;
13185;SDS011;6658;53.080;7.428;2023-12-20T04:56:17;10.43;;;2.43;;
13185;SDS011;6658;53.080;7.428;2023-12-20T04:58:43;12.10;;;3.37;;
13185;SDS011;6658;53.080;7.428;2023-12-20T05:01:09;7.70;;;2.40;;
13185;SDS011;6658;53.080;7.428;2023-12-20T05:03:35;12.03;;;2.97;;
13185;SDS011;6658;53.080;7.428;2023-12-20T05:06:01;10.13;;;2.90;;
13185;SDS011;6658;53.080;7.428;2023-12-20T05:08:27;11.33;;;2.63;;
13185;SDS011;6658;53.080;7.428;2023-12-20T05:10:53;9.77;;;2.43;;
13185;SDS011;6658;53.080;7.428;2023-12-20T05:13:19;12.27;;;3.00;;
13185;SDS011;6658;53.080;7.428;2023-12-20T05:15:45;8.03;;;3.40;;
13185;SDS011;6658;53.080;7.428;2023-12-20T05:18:11;11.50;;;2.87;;
13185;SDS011;6658;53.080;7.428;2023-12-20T05:20:37;13.83;;;3.30;;
13185;SDS011;6658;53.080;7.428;2023-12-20T05:23:03;10.83;;;2.80;;
13185;SDS011;6658;53.080;7.428;2023-12-20T05:25:29;11.90;;;4.13;;
13185;SDS011;6658;53.080;7.428;2023-12-20T05:27:55;11.30;;;4.00;;
13185;SDS011;6658;53.080;7.428;2023-12-20T05:30:21;9.67;;;3.20;;
13185;SDS011;6658;53.080;7.428;2023-12-20T05:32:47;13.97;;;2.87;;
13185;SDS011;6658;53.080;7.428;2023-12-20T05:35:12;12.43;;;3.63;;
13185;SDS011;6658;53.080;7.428;2023-12-20T05:37:38;10.40;;;2.57;;
13185;SDS011;6658;53.080;7.428;2023-12-20T05:40:04;11.20;;;3.40;;
13185;SDS011;6658;53.080;7.428;2023-12-20T05:42:30;9.03;;;2.70;;
13185;SDS011;6658;53.080;7.428;2023-12-20T05:44:56;10.27;;;2.63;;
13185;SDS011;6658;53.080;7.428;2023-12-20T05:47:22;8.97;;;2.93;;
13185;SDS011;6658;53.080;7.428;2023-12-20T05:49:47;8.40;;;3.43;;
13185;SDS011;6658;53.080;7.428;2023-12-20T05:52:13;12.77;;;3.10;;
13185;SDS011;6658;53.080;7.428;2023-12-20T05:54:39;11.53;;;2.87;;
13185;SDS011;6658;53.080;7.428;2023-12-20T05:57:05;9.53;;;2.90;;
13185;SDS011;6658;53.080;7.428;2023-12-20T05:59:31;7.70;;;2.53;;
13185;SDS011;6658;53.080;7.428;2023-12-20T06:01:56;12.30;;;2.80;;
13185;SDS011;6658;53.080;7.428;2023-12-20T06:04:22;11.60;;;2.97;;
13185;SDS011;6658;53.080;7.428;2023-12-20T06:06:48;7.30;;;2.83;;
13185;SDS011;6658;53.080;7.428;2023-12-20T06:09:13;11.53;;;3.07;;
13185;SDS011;6658;53.080;7.428;2023-12-20T06:11:40;12.07;;;3.37;;
13185;SDS011;6658;53.080;7.428;2023-12-20T06:14:05;10.37;;;3.30;;
13185;SDS011;6658;53.080;7.428;2023-12-20T06:16:31;9.80;;;3.33;;
13185;SDS011;6658;53.080;7.428;2023-12-20T06:18:57;12.10;;;3.73;;
13185;SDS011;6658;53.080;7.428;2023-12-20T06:21:23;9.00;;;2.50;;
13185;SDS011;6658;53.080;7.428;2023-12-20T06:23:48;13.83;;;3.40;;
13185;SDS011;6658;53.080;7.428;2023-12-20T06:26:14;11.07;;;3.07;;
13185;SDS011;6658;53.080;7.428;2023-12-20T06:28:39;9.17;;;2.83;;
13185;SDS011;6658;53.080;7.428;2023-12-20T06:31:05;16.27;;;3.20;;
13185;SDS011;6658;53.080;7.428;2023-12-20T06:33:31;8.57;;;3.50;;
13185;SDS011;6658;53.080;7.428;2023-12-20T06:35:57;10.97;;;3.00;;
13185;SDS011;6658;53.080;7.428;2023-12-20T06:38:22;9.10;;;2.47;;
13185;SDS011;6658;53.080;7.428;2023-12-20T06:40:48;12.43;;;2.90;;
13185;SDS011;6658;53.080;7.428;2023-12-20T06:43:14;14.50;;;3.47;;
13185;SDS011;6658;53.080;7.428;2023-12-20T06:45:39;11.43;;;2.43;;
13185;SDS011;6658;53.080;7.428;2023-12-20T06:48:06;8.80;;;3.30;;
13185;SDS011;6658;53.080;7.428;2023-12-20T06:50:31;9.60;;;3.60;;
13185;SDS011;6658;53.080;7.428;2023-12-20T06:52:57;10.47;;;2.47;;
13185;SDS011;6658;53.080;7.428;2023-12-20T06:55:23;8.73;;;2.63;;
13185;SDS011;6658;53.080;7.428;2023-12-20T06:57:48;9.13;;;2.90;;
13185;SDS011;6658;53.080;7.428;2023-12-20T07:00:14;13.10;;;3.77;;
13185;SDS011;6658;53.080;7.428;2023-12-20T07:02:40;9.47;;;2.83;;
13185;SDS011;6658;53.080;7.428;2023-12-20T07:05:06;10.80;;;2.87;;
13185;SDS011;6658;53.080;7.428;2023-12-20T07:07:32;10.87;;;3.07;;
13185;SDS011;6658;53.080;7.428;2023-12-20T07:09:58;7.63;;;2.90;;
13185;SDS011;6658;53.080;7.428;2023-12-20T07:12:23;6.23;;;2.20;;
13185;SDS011;6658;53.080;7.428;2023-12-20T07:14:49;8.00;;;3.17;;
13185;SDS011;6658;53.080;7.428;2023-12-20T07:17:15;13.33;;;3.50;;
13185;SDS011;6658;53.080;7.428;2023-12-20T07:19:41;12.67;;;3.67;;
13185;SDS011;6658;53.080;7.428;2023-12-20T07:22:07;13.53;;;3.70;;
13185;SDS011;6658;53.080;7.428;2023-12-20T07:24:36;11.10;;;3.33;;
13185;SDS011;6658;53.080;7.428;2023-12-20T07:27:01;10.00;;;2.83;;
13185;SDS011;6658;53.080;7.428;2023-12-20T07:29:27;11.77;;;3.40;;
13185;SDS011;6658;53.080;7.428;2023-12-20T07:31:53;9.40;;;2.60;;
13185;SDS011;6658;53.080;7.428;2023-12-20T07:34:20;11.20;;;3.50;;
13185;SDS011;6658;53.080;7.428;2023-12-20T07:36:46;11.30;;;3.03;;
13185;SDS011;6658;53.080;7.428;2023-12-20T07:39:12;9.93;;;3.03;;
13185;SDS011;6658;53.080;7.428;2023-12-20T07:41:38;13.80;;;3.13;;
13185;SDS011;6658;53.080;7.428;2023-12-20T07:44:04;13.30;;;3.00;;
13185;SDS011;6658;53.080;7.428;2023-12-20T07:46:30;10.33;;;2.77;;
13185;SDS011;6658;53.080;7.428;2023-12-20T07:48:55;12.17;;;3.40;;
13185;SDS011;6658;53.080;7.428;2023-12-20T07:51:21;9.43;;;2.30;;
13185;SDS011;6658;53.080;7.428;2023-12-20T07:53:47;9.83;;;3.43;;
13185;SDS011;6658;53.080;7.428;2023-12-20T07:56:16;12.77;;;2.97;;
13185;SDS011;6658;53.080;7.428;2023-12-20T07:58:43;14.17;;;3.13;;
13185;SDS011;6658;53.080;7.428;2023-12-20T08:01:10;12.53;;;3.57;;
13185;SDS011;6658;53.080;7.428;2023-12-20T08:03:35;9.93;;;3.30;;
13185;SDS011;6658;53.080;7.428;2023-12-20T08:06:01;13.43;;;3.23;;
13185;SDS011;6658;53.080;7.428;2023-12-20T08:08:27;13.47;;;4.30;;
13185;SDS011;6658;53.080;7.428;2023-12-20T08:10:53;8.33;;;2.83;;
13185;SDS011;6658;53.080;7.428;2023-12-20T08:13:19;11.43;;;3.07;;
13185;SDS011;6658;53.080;7.428;2023-12-20T08:15:45;8.87;;;3.03;;
13185;SDS011;6658;53.080;7.428;2023-12-20T08:18:10;13.30;;;3.00;;
13185;SDS011;6658;53.080;7.428;2023-12-20T08:20:36;10.10;;;3.40;;
13185;SDS011;6658;53.080;7.428;2023-12-20T08:23:02;13.93;;;3.43;;
13185;SDS011;6658;53.080;7.428;2023-12-20T08:25:27;8.57;;;2.47;;
13185;SDS011;6658;53.080;7.428;2023-12-20T08:27:53;11.23;;;4.63;;
13185;SDS011;6658;53.080;7.428;2023-12-20T08:30:19;14.27;;;4.40;;
13185;SDS011;6658;53.080;7.428;2023-12-20T08:32:47;12.27;;;2.77;;
13185;SDS011;6658;53.080;7.428;2023-12-20T08:35:13;10.80;;;2.97;;
13185;SDS011;6658;53.080;7.428;2023-12-20T08:37:39;8.90;;;2.90;;
13185;SDS011;6658;53.080;7.428;2023-12-20T08:40:05;9.63;;;3.40;;
13185;SDS011;6658;53.080;7.428;2023-12-20T08:42:31;14.20;;;3.90;;
13185;SDS011;6658;53.080;7.428;2023-12-20T08:44:57;8.73;;;3.43;;
13185;SDS011;6658;53.080;7.428;2023-12-20T08:47:23;10.47;;;3.87;;
13185;SDS011;6658;53.080;7.428;2023-12-20T08:49:49;10.47;;;3.53;;
13185;SDS011;6658;53.080;7.428;2023-12-20T08:52:15;15.23;;;3.87;;
13185;SDS011;6658;53.080;7.428;2023-12-20T08:54:41;14.53;;;3.43;;
13185;SDS011;6658;53.080;7.428;2023-12-20T08:57:06;10.13;;;3.57;;
13185;SDS011;6658;53.080;7.428;2023-12-20T08:59:32;11.53;;;3.20;;
13185;SDS011;6658;53.080;7.428;2023-12-20T09:01:58;9.93;;;3.93;;
13185;SDS011;6658;53.080;7.428;2023-12-20T09:04:24;10.43;;;2.90;;
13185;SDS011;6658;53.080;7.428;2023-12-20T09:06:50;7.23;;;2.43;;
13185;SDS011;6658;53.080;7.428;2023-12-20T09:09:16;9.93;;;3.07;;
13185;SDS011;6658;53.080;7.428;2023-12-20T09:11:42;12.80;;;3.50;;
13185;SDS011;6658;53.080;7.428;2023-12-20T09:14:08;9.43;;;3.20;;
13185;SDS011;6658;53.080;7.428;2023-12-20T09:16:34;4.30;;;1.47;;
13185;SDS011;6658;53.080;7.428;2023-12-20T09:19:00;1.33;;;0.97;;
13185;SDS011;6658;53.080;7.428;2023-12-20T09:21:25;1.37;;;0.50;;
13185;SDS011;6658;53.080;7.428;2023-12-20T09:23:51;0.77;;;0.60;;
13185;SDS011;6658;53.080;7.428;2023-12-20T09:26:17;1.00;;;0.40;;
13185;SDS011;6658;53.080;7.428;2023-12-20T09:28:42;2.20;;;0.60;;
13185;SDS011;6658;53.080;7.428;2023-12-20T09:31:08;1.23;;;0.93;;
13185;SDS011;6658;53.080;7.428;2023-12-20T09:33:34;2.00;;;0.60;;
13185;SDS011;6658;53.080;7.428;2023-12-20T09:36:00;1.93;;;0.97;;
13185;SDS011;6658;53.080;7.428;2023-12-20T09:38:26;3.13;;;1.57;;
13185;SDS011;6658;53.080;7.428;2023-12-20T09:40:51;2.33;;;1.03;;
13185;SDS011;6658;53.080;7.428;2023-12-20T09:43:18;1.73;;;0.80;;
13185;SDS011;6658;53.080;7.428;2023-12-20T09:45:46;1.77;;;0.93;;
13185;SDS011;6658;53.080;7.428;2023-12-20T09:48:12;3.07;;;1.00;;
13185;SDS011;6658;53.080;7.428;2023-12-20T09:50:41;2.10;;;0.80;;
13185;SDS011;6658;53.080;7.428;2023-12-20T09:53:10;1.53;;;0.50;;
13185;SDS011;6658;53.080;7.428;2023-12-20T09:55:40;4.10;;;0.97;;
13185;SDS011;6658;53.080;7.428;2023-12-20T09:58:06;3.50;;;1.10;;
13185;SDS011;6658;53.080;7.428;2023-12-20T10:00:33;1.47;;;0.73;;
13185;SDS011;6658;53.080;7.428;2023-12-20T10:03:00;3.93;;;1.50;;
13185;SDS011;6658;53.080;7.428;2023-12-20T10:05:30;1.53;;;0.97;;
13185;SDS011;6658;53.080;7.428;2023-12-20T10:07:57;2.30;;;0.93;;
13185;SDS011;6658;53.080;7.428;2023-12-20T10:10:24;2.57;;;0.90;;
13185;SDS011;6658;53.080;7.428;2023-12-20T10:13:06;4.20;;;0.90;;
13185;SDS011;6658;53.080;7.428;2023-12-20T10:15:36;2.80;;;0.87;;
13185;SDS011;6658;53.080;7.428;2023-12-20T10:18:03;2.77;;;1.00;;
13185;SDS011;6658;53.080;7.428;2023-12-20T10:20:29;2.77;;;0.90;;
13185;SDS011;6658;53.080;7.428;2023-12-20T10:22:56;2.47;;;0.73;;
13185;SDS011;6658;53.080;7.428;2023-12-20T10:25:23;7.13;;;1.90;;
13185;SDS011;6658;53.080;7.428;2023-12-20T10:27:50;2.80;;;1.10;;
13185;SDS011;6658;53.080;7.428;2023-12-20T10:30:33;5.27;;;1.30;;
13185;SDS011;6658;53.080;7.428;2023-12-20T10:32:59;2.93;;;0.93;;
13185;SDS011;6658;53.080;7.428;2023-12-20T10:35:24;3.77;;;1.00;;
13185;SDS011;6658;53.080;7.428;2023-12-20T10:37:51;3.57;;;1.40;;
13185;SDS011;6658;53.080;7.428;2023-12-20T10:40:23;2.87;;;0.57;;
13185;SDS011;6658;53.080;7.428;2023-12-20T10:42:52;2.63;;;0.90;;
13185;SDS011;6658;53.080;7.428;2023-12-20T10:45:19;3.70;;;1.43;;
13185;SDS011;6658;53.080;7.428;2023-12-20T10:47:46;2.17;;;0.93;;
13185;SDS011;6658;53.080;7.428;2023-12-20T10:50:12;4.93;;;1.30;;
13185;SDS011;6658;53.080;7.428;2023-12-20T10:52:37;2.47;;;1.00;;
13185;SDS011;6658;53.080;7.428;2023-12-20T10:55:05;5.17;;;1.13;;
13185;SDS011;6658;53.080;7.428;2023-12-20T10:57:31;3.93;;;0.93;;
13185;SDS011;6658;53.080;7.428;2023-12-20T10:59:59;1.83;;;0.60;;
13185;SDS011;6658;53.080;7.428;2023-12-20T11:02:29;3.27;;;1.17;;
13185;SDS011;6658;53.080;7.428;2023-12-20T11:07:50;3.43;;;1.17;;
13185;SDS011;6658;53.080;7.428;2023-12-20T11:10:30;3.67;;;1.30;;
13185;SDS011;6658;53.080;7.428;2023-12-20T11:13:10;3.63;;;1.10;;
13185;SDS011;6658;53.080;7.428;2023-12-20T11:15:42;3.10;;;1.27;;
13185;SDS011;6658;53.080;7.428;2023-12-20T11:18:08;3.10;;;1.70;;
13185;SDS011;6658;53.080;7.428;2023-12-20T11:20:38;4.33;;;1.27;;
13185;SDS011;6658;53.080;7.428;2023-12-20T11:23:05;3.57;;;1.60;;
13185;SDS011;6658;53.080;7.428;2023-12-20T11:25:48;3.90;;;1.90;;
13185;SDS011;6658;53.080;7.428;2023-12-20T11:28:20;4.57;;;1.67;;
13185;SDS011;6658;53.080;7.428;2023-12-20T11:30:48;5.07;;;1.40;;
13185;SDS011;6658;53.080;7.428;2023-12-20T11:33:23;3.90;;;1.20;;
13185;SDS011;6658;53.080;7.428;2023-12-20T11:35:50;4.70;;;1.47;;
13185;SDS011;6658;53.080;7.428;2023-12-20T11:38:16;6.53;;;1.37;;
13185;SDS011;6658;53.080;7.428;2023-12-20T11:40:47;5.83;;;1.13;;
13185;SDS011;6658;53.080;7.428;2023-12-20T11:46:03;3.53;;;1.00;;
13185;SDS011;6658;53.080;7.428;2023-12-20T11:48:34;4.83;;;1.80;;
13185;SDS011;6658;53.080;7.428;2023-12-20T11:51:02;4.97;;;1.67;;
13185;SDS011;6658;53.080;7.428;2023-12-20T11:53:29;3.07;;;1.30;;
13185;SDS011;6658;53.080;7.428;2023-12-20T11:55:56;4.50;;;1.10;;
13185;SDS011;6658;53.080;7.428;2023-12-20T11:58:21;3.20;;;0.90;;
13185;SDS011;6658;53.080;7.428;2023-12-20T12:00:48;3.13;;;1.10;;
13185;SDS011;6658;53.080;7.428;2023-12-20T12:03:15;4.63;;;1.30;;
13185;SDS011;6658;53.080;7.428;2023-12-20T12:05:41;4.80;;;1.40;;
13185;SDS011;6658;53.080;7.428;2023-12-20T12:08:07;3.73;;;1.57;;
13185;SDS011;6658;53.080;7.428;2023-12-20T12:10:33;6.10;;;1.67;;
13185;SDS011;6658;53.080;7.428;2023-12-20T12:12:58;5.57;;;1.90;;
13185;SDS011;6658;53.080;7.428;2023-12-20T12:15:25;4.90;;;1.67;;
13185;SDS011;6658;53.080;7.428;2023-12-20T12:17:54;4.87;;;1.43;;
13185;SDS011;6658;53.080;7.428;2023-12-20T12:20:21;6.37;;;1.67;;
13185;SDS011;6658;53.080;7.428;2023-12-20T12:23:05;5.00;;;1.73;;
13185;SDS011;6658;53.080;7.428;2023-12-20T12:25:32;6.47;;;1.80;;
13185;SDS011;6658;53.080;7.428;2023-12-20T12:28:00;4.73;;;1.67;;
13185;SDS011;6658;53.080;7.428;2023-12-20T12:30:27;6.30;;;3.87;;
13185;SDS011;6658;53.080;7.428;2023-12-20T12:32:53;10.07;;;9.07;;
13185;SDS011;6658;53.080;7.428;2023-12-20T12:35:19;8.57;;;4.07;;
13185;SDS011;6658;53.080;7.428;2023-12-20T12:37:45;5.97;;;2.67;;
13185;SDS011;6658;53.080;7.428;2023-12-20T12:40:11;7.27;;;3.10;;
13185;SDS011;6658;53.080;7.428;2023-12-20T12:42:38;6.23;;;1.80;;
13185;SDS011;6658;53.080;7.428;2023-12-20T12:45:05;3.90;;;1.40;;
13185;SDS011;6658;53.080;7.428;2023-12-20T12:47:32;6.97;;;1.97;;
13185;SDS011;6658;53.080;7.428;2023-12-20T12:49:58;3.20;;;1.33;;
13185;SDS011;6658;53.080;7.428;2023-12-20T12:52:24;5.27;;;2.57;;
13185;SDS011;6658;53.080;7.428;2023-12-20T12:54:51;3.83;;;1.67;;
13185;SDS011;6658;53.080;7.428;2023-12-20T12:57:17;8.27;;;5.40;;
13185;SDS011;6658;53.080;7.428;2023-12-20T12:59:44;5.90;;;1.53;;
13185;SDS011;6658;53.080;7.428;2023-12-20T13:02:13;7.87;;;1.83;;
13185;SDS011;6658;53.080;7.428;2023-12-20T13:04:39;4.90;;;1.70;;
13185;SDS011;6658;53.080;7.428;2023-12-20T13:07:08;8.63;;;2.50;;
13185;SDS011;6658;53.080;7.428;2023-12-20T13:09:37;7.70;;;2.13;;
13185;SDS011;6658;53.080;7.428;2023-12-20T13:12:03;6.10;;;2.23;;
13185;SDS011;6658;53.080;7.428;2023-12-20T13:14:32;3.70;;;1.60;;
13185;SDS011;6658;53.080;7.428;2023-12-20T13:16:59;2.87;;;1.53;;
13185;SDS011;6658;53.080;7.428;2023-12-20T13:19:26;4.83;;;1.60;;
13185;SDS011;6658;53.080;7.428;2023-12-20T13:21:52;5.30;;;1.80;;
13185;SDS011;6658;53.080;7.428;2023-12-20T13:24:18;9.60;;;2.30;;
13185;SDS011;6658;53.080;7.428;2023-12-20T13:26:44;5.33;;;1.67;;
13185;SDS011;6658;53.080;7.428;2023-12-20T13:29:10;6.57;;;2.00;;
13185;SDS011;6658;53.080;7.428;2023-12-20T13:31:37;4.33;;;1.63;;
13185;SDS011;6658;53.080;7.428;2023-12-20T13:34:03;5.83;;;2.30;;
13185;SDS011;6658;53.080;7.428;2023-12-20T13:36:29;5.93;;;2.40;;
13185;SDS011;6658;53.080;7.428;2023-12-20T13:38:54;4.13;;;1.67;;
13185;SDS011;6658;53.080;7.428;2023-12-20T13:41:20;4.47;;;1.60;;
13185;SDS011;6658;53.080;7.428;2023-12-20T13:43:46;4.80;;;2.10;;
13185;SDS011;6658;53.080;7.428;2023-12-20T13:46:12;6.70;;;2.17;;
13185;SDS011;6658;53.080;7.428;2023-12-20T13:48:39;6.57;;;1.93;;
13185;SDS011;6658;53.080;7.428;2023-12-20T13:51:04;6.83;;;2.27;;
13185;SDS011;6658;53.080;7.428;2023-12-20T13:53:31;5.30;;;1.60;;
13185;SDS011;6658;53.080;7.428;2023-12-20T13:55:56;5.27;;;1.60;;
13185;SDS011;6658;53.080;7.428;2023-12-20T13:58:23;5.10;;;2.03;;
13185;SDS011;6658;53.080;7.428;2023-12-20T14:00:48;8.47;;;2.50;;
13185;SDS011;6658;53.080;7.428;2023-12-20T14:03:14;6.13;;;1.60;;
13185;SDS011;6658;53.080;7.428;2023-12-20T14:05:40;6.00;;;1.90;;
13185;SDS011;6658;53.080;7.428;2023-12-20T14:08:06;7.87;;;1.90;;
13185;SDS011;6658;53.080;7.428;2023-12-20T14:10:32;5.30;;;1.80;;
13185;SDS011;6658;53.080;7.428;2023-12-20T14:12:58;3.73;;;0.90;;
13185;SDS011;6658;53.080;7.428;2023-12-20T14:15:23;7.17;;;2.60;;
13185;SDS011;6658;53.080;7.428;2023-12-20T14:17:50;5.27;;;1.73;;
13185;SDS011;6658;53.080;7.428;2023-12-20T14:20:16;5.47;;;2.53;;
13185;SDS011;6658;53.080;7.428;2023-12-20T14:22:42;5.27;;;1.50;;
13185;SDS011;6658;53.080;7.428;2023-12-20T14:25:10;5.43;;;4.10;;
13185;SDS011;6658;53.080;7.428;2023-12-20T14:27:37;3.67;;;2.27;;
13185;SDS011;6658;53.080;7.428;2023-12-20T14:30:04;6.53;;;3.00;;
13185;SDS011;6658;53.080;7.428;2023-12-20T14:32:31;7.77;;;4.07;;
13185;SDS011;6658;53.080;7.428;2023-12-20T14:34:57;4.80;;;1.93;;
13185;SDS011;6658;53.080;7.428;2023-12-20T14:37:23;4.73;;;3.03;;
13185;SDS011;6658;53.080;7.428;2023-12-20T14:39:48;5.33;;;1.50;;
13185;SDS011;6658;53.080;7.428;2023-12-20T14:42:14;3.20;;;1.60;;
13185;SDS011;6658;53.080;7.428;2023-12-20T14:44:40;5.10;;;2.20;;
13185;SDS011;6658;53.080;7.428;2023-12-20T14:47:06;3.73;;;1.70;;
13185;SDS011;6658;53.080;7.428;2023-12-20T14:49:32;5.07;;;2.30;;
13185;SDS011;6658;53.080;7.428;2023-12-20T14:51:58;6.20;;;1.30;;
13185;SDS011;6658;53.080;7.428;2023-12-20T14:54:24;4.97;;;1.30;;
13185;SDS011;6658;53.080;7.428;2023-12-20T14:56:50;4.00;;;1.57;;
13185;SDS011;6658;53.080;7.428;2023-12-20T14:59:16;5.03;;;1.30;;